createdAt,value
2022-10-12T16:01:47.362Z,6.75
2022-10-12T16:03:25.283Z,10.80
2022-10-12T16:04:57.858Z,12.40
2022-10-12T16:06:29.630Z,11.20
2022-10-12T16:08:02.020Z,9.60
2022-10-12T16:09:33.767Z,21.00
2022-10-12T16:11:06.500Z,19.20
2022-10-12T16:12:38.189Z,16.40
2022-10-12T16:14:12.543Z,9.00
2022-10-12T16:15:44.384Z,11.40
2022-10-12T16:17:16.464Z,12.20
2022-10-12T16:18:48.470Z,10.20
2022-10-12T16:20:20.238Z,10.40
2022-10-12T16:21:52.086Z,12.80
2022-10-12T16:23:28.302Z,12.00
2022-10-12T16:25:00.035Z,12.60
2022-10-12T16:26:31.653Z,9.40
2022-10-12T16:28:03.471Z,9.40
2022-10-12T16:29:37.196Z,13.80
2022-10-12T16:31:15.871Z,9.80
2022-10-12T16:32:48.053Z,12.20
2022-10-12T16:34:20.046Z,6.40
2022-10-12T16:35:51.745Z,19.20
2022-10-12T16:37:23.692Z,30.80
2022-10-12T16:38:55.647Z,22.80
2022-10-12T16:40:27.377Z,17.00
2022-10-12T16:41:59.039Z,16.40
2022-10-12T16:43:30.783Z,13.20
2022-10-12T16:45:02.521Z,15.00
2022-10-12T16:46:34.349Z,14.40
2022-10-12T16:48:06.052Z,15.60
2022-10-12T16:49:37.835Z,16.00
2022-10-12T16:51:10.472Z,9.40
2022-10-12T16:52:42.190Z,17.20
2022-10-12T16:54:14.037Z,10.80
2022-10-12T16:55:45.995Z,11.80
2022-10-12T16:57:17.650Z,11.60
2022-10-12T16:58:49.388Z,16.20
2022-10-12T17:00:21.286Z,25.60
2022-10-12T17:01:53.056Z,13.20
2022-10-12T17:03:24.997Z,10.80
2022-10-12T17:04:56.750Z,15.80
2022-10-12T17:06:29.306Z,17.00
2022-10-12T17:08:00.967Z,18.80
2022-10-12T17:09:32.769Z,63.40
2022-10-12T17:11:08.369Z,96.25
2022-10-12T17:12:40.062Z,75.00
2022-10-12T17:14:13.790Z,90.50
2022-10-12T17:15:45.583Z,88.25
2022-10-12T17:17:17.752Z,88.25
2022-10-12T17:18:49.503Z,89.75
2022-10-12T17:20:21.240Z,86.75
2022-10-12T17:21:53.868Z,91.50
2022-10-12T17:23:25.577Z,93.75
2022-10-12T17:24:57.281Z,94.00
2022-10-12T17:26:29.056Z,102.75
2022-10-12T17:28:00.720Z,107.50
2022-10-12T17:29:32.798Z,107.80
2022-10-12T17:31:09.253Z,131.25
2022-10-12T17:32:43.884Z,130.25
2022-10-12T17:34:23.339Z,131.50
2022-10-12T17:35:55.152Z,147.50
2022-10-12T17:37:26.834Z,156.50
2022-10-12T17:38:58.824Z,167.50
2022-10-12T17:40:30.622Z,146.00
2022-10-12T17:42:03.007Z,157.25
2022-10-12T17:43:36.588Z,156.00
2022-10-12T17:45:09.014Z,161.75
2022-10-12T17:46:42.411Z,156.25
2022-10-12T17:48:15.574Z,160.75
2022-10-12T17:49:51.075Z,163.75
2022-10-12T17:51:23.027Z,167.75
2022-10-12T17:52:55.073Z,155.75
2022-10-12T17:54:27.618Z,155.25
2022-10-12T17:56:03.166Z,157.50
2022-10-12T17:57:35.354Z,154.75
2022-10-12T17:59:08.674Z,152.00
2022-10-12T18:00:40.691Z,147.75
2022-10-12T18:02:12.818Z,157.25
2022-10-12T18:03:47.432Z,220.00
2022-10-12T18:05:21.012Z,211.00
2022-10-12T18:06:53.633Z,209.67
2022-10-12T18:08:25.679Z,195.50
2022-10-12T18:09:59.408Z,182.00
2022-10-12T18:11:31.860Z,154.25
2022-10-12T18:13:03.965Z,152.25
2022-10-12T18:14:36.121Z,140.00
2022-10-12T18:16:09.461Z,144.25
2022-10-12T18:17:41.530Z,135.25
2022-10-12T18:19:13.504Z,141.00
2022-10-12T18:20:45.409Z,130.25
2022-10-12T18:22:18.620Z,151.25
2022-10-12T18:23:51.199Z,161.75
2022-10-12T18:25:23.032Z,146.00
2022-10-12T18:26:54.783Z,151.25
2022-10-12T18:28:26.458Z,159.00
2022-10-12T18:29:58.807Z,146.50
2022-10-12T18:31:31.382Z,159.25
2022-10-12T18:33:04.113Z,160.00
2022-10-12T18:34:38.707Z,165.50
2022-10-12T18:36:10.608Z,161.00
2022-10-12T18:37:42.305Z,154.25
2022-10-12T18:39:14.658Z,170.00
2022-10-12T18:40:47.632Z,168.25
2022-10-12T18:42:19.694Z,158.25
2022-10-12T18:43:55.471Z,168.00
2022-10-12T18:45:28.573Z,152.75
2022-10-12T18:47:00.453Z,146.25
2022-10-12T18:48:32.252Z,149.75
2022-10-12T18:50:04.597Z,148.75
2022-10-12T18:51:37.912Z,155.25
2022-10-12T18:53:09.701Z,143.75
2022-10-12T18:54:44.313Z,143.50
2022-10-12T18:56:16.528Z,144.75
2022-10-12T18:57:48.363Z,131.50
2022-10-12T18:59:20.416Z,133.00
2022-10-12T19:00:52.313Z,137.25
2022-10-12T19:02:24.219Z,168.75
2022-10-12T19:03:56.458Z,171.25
2022-10-12T19:05:28.278Z,153.25
2022-10-12T19:07:00.036Z,181.50
2022-10-12T19:08:31.865Z,190.00
2022-10-12T19:10:06.942Z,179.75
2022-10-12T19:11:38.661Z,178.00
2022-10-12T19:13:10.422Z,214.67
2022-10-12T19:14:42.705Z,500.60
2022-10-12T19:16:15.787Z,277.50
2022-10-12T19:17:47.513Z,260.00
2022-10-12T19:19:21.502Z,277.00
2022-10-12T19:20:53.648Z,262.67
2022-10-12T19:22:26.525Z,246.00
2022-10-12T19:23:58.462Z,224.33
2022-10-12T19:25:30.601Z,242.67
2022-10-12T19:27:04.136Z,222.33
2022-10-12T19:28:35.973Z,227.33
2022-10-12T19:30:09.187Z,208.67
2022-10-12T19:31:43.761Z,226.33
2022-10-12T19:33:15.478Z,250.33
2022-10-12T19:34:47.225Z,246.67
2022-10-12T19:36:19.052Z,224.00
2022-10-12T19:37:50.861Z,233.67
2022-10-12T19:39:22.999Z,228.67
2022-10-12T19:40:55.077Z,247.33
2022-10-12T19:42:26.840Z,240.33
2022-10-12T19:43:58.841Z,248.33
2022-10-12T19:45:30.721Z,212.67
2022-10-12T19:47:03.505Z,225.67
2022-10-12T19:48:35.835Z,234.00
2022-10-12T19:50:08.244Z,229.67
2022-10-12T19:51:40.682Z,227.67
2022-10-12T19:53:12.411Z,224.67
2022-10-12T19:54:44.222Z,224.67
2022-10-12T19:56:17.669Z,214.33
2022-10-12T19:57:50.684Z,218.33
2022-10-12T19:59:22.384Z,213.67
2022-10-12T20:01:10.481Z,193.00
2022-10-12T20:02:43.160Z,220.00
2022-10-12T20:04:15.159Z,214.67
2022-10-12T20:05:47.049Z,188.00
2022-10-12T20:07:18.896Z,190.50
2022-10-12T20:08:51.320Z,189.50
2022-10-12T20:10:23.489Z,192.50
2022-10-12T20:11:55.151Z,190.25
2022-10-12T20:13:27.101Z,180.50
2022-10-12T20:14:59.178Z,180.00
2022-10-12T20:16:34.840Z,182.50
2022-10-12T20:18:07.136Z,174.75
2022-10-12T20:19:38.899Z,172.25
2022-10-12T20:21:12.084Z,166.50
2022-10-12T20:22:43.905Z,168.75
2022-10-12T20:24:15.615Z,155.00
2022-10-12T20:25:51.909Z,145.50
2022-10-12T20:27:23.722Z,156.25
2022-10-12T20:28:55.433Z,134.50
2022-10-12T20:30:27.248Z,153.75
2022-10-12T20:31:58.957Z,143.25
2022-10-12T20:33:31.039Z,134.75
2022-10-12T20:35:05.114Z,155.50
2022-10-12T20:36:36.914Z,158.75
2022-10-12T20:38:08.627Z,168.25
2022-10-12T20:39:40.393Z,328.25
2022-10-12T20:41:13.068Z,306.00
2022-10-12T20:42:44.789Z,293.75
2022-10-12T20:44:16.651Z,283.25
2022-10-12T20:46:06.642Z,223.33
2022-10-12T20:47:38.325Z,199.00
2022-10-12T20:49:10.690Z,200.00
2022-10-12T20:50:42.364Z,186.50
2022-10-12T20:52:14.166Z,171.75
2022-10-12T20:53:45.878Z,181.50
2022-10-12T20:55:17.609Z,180.00
2022-10-12T20:56:52.083Z,187.50
2022-10-12T20:58:27.799Z,189.75
2022-10-12T20:59:59.847Z,187.00
2022-10-12T21:01:31.851Z,192.25
2022-10-12T21:03:03.622Z,169.25
2022-10-12T21:04:38.388Z,183.50
2022-10-12T21:06:14.198Z,183.75
2022-10-12T21:07:46.289Z,169.00
2022-10-12T21:09:18.053Z,186.25
2022-10-12T21:10:50.103Z,183.50
2022-10-12T21:12:21.857Z,178.75
2022-10-12T21:13:54.493Z,169.75
2022-10-12T21:15:26.202Z,174.50
2022-10-12T21:16:57.990Z,172.25
2022-10-12T21:18:33.984Z,174.50
2022-10-12T21:20:07.846Z,167.50
2022-10-12T21:21:39.551Z,157.25
2022-10-12T21:23:11.247Z,146.25
2022-10-12T21:24:43.008Z,162.50
2022-10-12T21:26:16.458Z,150.25
2022-10-12T21:27:48.121Z,140.25
2022-10-12T21:29:19.911Z,157.00
2022-10-12T21:30:51.573Z,156.25
2022-10-12T21:32:23.213Z,140.75
2022-10-12T21:33:55.012Z,150.50
2022-10-12T21:35:26.662Z,130.75
2022-10-12T21:36:58.444Z,136.00
2022-10-12T21:38:30.593Z,126.25
2022-10-12T21:40:02.333Z,144.00
2022-10-12T21:41:34.009Z,131.50
2022-10-12T21:43:05.690Z,128.75
2022-10-12T21:44:37.474Z,119.25
2022-10-12T21:46:11.145Z,117.40
2022-10-12T21:47:42.819Z,115.00
2022-10-12T21:49:14.622Z,119.00
2022-10-12T21:50:46.543Z,114.60
2022-10-12T21:52:18.524Z,111.80
2022-10-12T21:53:50.700Z,117.80
2022-10-12T21:55:22.460Z,116.20
2022-10-12T21:56:54.224Z,104.80
2022-10-12T21:58:27.003Z,104.80
2022-10-12T21:59:59.389Z,103.00
2022-10-12T22:01:35.507Z,105.75
2022-10-12T22:03:07.224Z,80.50
2022-10-12T22:04:40.027Z,79.00
2022-10-12T22:06:14.174Z,86.00
2022-10-12T22:07:45.873Z,76.00
2022-10-12T22:09:19.214Z,79.50
2022-10-12T22:10:51.045Z,78.25
2022-10-12T22:12:22.812Z,108.00
2022-10-12T22:14:08.382Z,119.60
2022-10-12T22:15:40.224Z,139.75
2022-10-12T22:17:16.194Z,138.75
2022-10-12T22:18:49.731Z,142.00
2022-10-12T22:20:21.558Z,133.25
2022-10-12T22:21:57.271Z,133.25
2022-10-12T22:23:33.186Z,118.80
2022-10-12T22:25:08.003Z,116.40
2022-10-12T22:26:42.338Z,111.40
2022-10-12T22:28:14.082Z,110.00
2022-10-12T22:29:46.724Z,110.60
2022-10-12T22:31:22.129Z,122.00
2022-10-12T22:32:53.847Z,151.50
2022-10-12T22:34:25.677Z,153.75
